Time;durP1;ratioP1;P1;durP2;ratioP2;P2;SDS_P1;SDS_P2;PMS_P1;PMS_P2;Temp;Humidity;BMP_temperature;BMP_pressure;BME280_temperature;BME280_humidity;BME280_pressure;Samples;Min_cycle;Max_cycle;Signal;HPM_P1;HPM_P2
2024/02/09 00:02:07;;;;;;;5.35;3.30;;;;;;;;;;4930591;29;20036;-79
2024/02/09 00:04:38;;;;;;;4.82;3.20;;;;;;;;;;4928782;29;20051;-79
2024/02/09 00:07:14;;;;;;;8.05;3.53;;;;;;;;;;4928414;29;20130;-79
2024/02/09 00:09:42;;;;;;;7.57;4.10;;;;;;;;;;4912353;29;20040;-80
2024/02/09 00:12:09;;;;;;;7.35;3.35;;;;;;;;;;4927122;29;20105;-79
2024/02/09 00:14:42;;;;;;;7.05;3.60;;;;;;;;;;4927023;29;20110;-80
2024/02/09 00:17:08;;;;;;;5.22;3.25;;;;;;;;;;4926831;29;20040;-80
2024/02/09 00:19:34;;;;;;;6.57;3.75;;;;;;;;;;4944284;29;20067;-79
2024/02/09 00:22:07;;;;;;;7.40;3.97;;;;;;;;;;4927792;29;20055;-78
2024/02/09 00:24:36;;;;;;;6.20;3.67;;;;;;;;;;4929329;29;20126;-79
2024/02/09 00:27:04;;;;;;;6.18;3.88;;;;;;;;;;4929403;29;20036;-81
2024/02/09 00:29:31;;;;;;;6.40;3.67;;;;;;;;;;4944814;29;20056;-81
2024/02/09 00:31:59;;;;;;;6.95;3.88;;;;;;;;;;4942990;29;20051;-79
2024/02/09 00:34:25;;;;;;;6.57;4.35;;;;;;;;;;4944025;29;20035;-82
2024/02/09 00:36:51;;;;;;;6.50;4.40;;;;;;;;;;4960982;28;20032;-79
2024/02/09 00:39:17;;;;;;;7.72;4.82;;;;;;;;;;4930016;29;20381;-79
2024/02/09 00:41:44;;;;;;;6.90;4.40;;;;;;;;;;4947064;29;20047;-81
2024/02/09 00:44:12;;;;;;;8.10;4.43;;;;;;;;;;4934430;29;20044;-79
2024/02/09 00:46:43;;;;;;;8.55;5.10;;;;;;;;;;4936328;29;20100;-79
2024/02/09 00:49:09;;;;;;;7.57;4.78;;;;;;;;;;4952942;29;20044;-80
2024/02/09 00:51:37;;;;;;;9.40;5.53;;;;;;;;;;4955061;29;20032;-78
2024/02/09 00:54:04;;;;;;;9.73;5.57;;;;;;;;;;4934823;29;20020;-79
2024/02/09 00:56:32;;;;;;;8.15;5.28;;;;;;;;;;4930373;29;20036;-81
2024/02/09 00:58:58;;;;;;;9.38;5.13;;;;;;;;;;4929457;29;20095;-80
2024/02/09 01:01:24;;;;;;;8.75;5.60;;;;;;;;;;4927585;29;20055;-79
2024/02/09 01:03:53;;;;;;;9.77;5.80;;;;;;;;;;4927387;29;20032;-79
2024/02/09 01:06:21;;;;;;;7.55;4.50;;;;;;;;;;4928084;29;20044;-81
2024/02/09 01:08:51;;;;;;;9.52;6.18;;;;;;;;;;4927265;29;20076;-80
2024/02/09 01:11:18;;;;;;;8.38;5.47;;;;;;;;;;4927471;29;20048;-80
2024/02/09 02:46:54;;;;;;;16.63;7.82;;;;;;;;;;4926292;29;20071;-78
2024/02/09 03:06:02;;;;;;;16.90;9.45;;;;;;;;;;4965908;29;20654;-79
2024/02/09 03:08:29;;;;;;;16.25;9.63;;;;;;;;;;4946398;29;20032;-79
2024/02/09 03:10:55;;;;;;;16.90;9.95;;;;;;;;;;4945065;29;20144;-79
2024/02/09 03:13:21;;;;;;;17.52;9.55;;;;;;;;;;4944245;29;20403;-79
2024/02/09 03:15:47;;;;;;;16.88;9.63;;;;;;;;;;4943473;29;20040;-81
2024/02/09 03:18:17;;;;;;;15.02;9.43;;;;;;;;;;4928313;29;20490;-79
2024/02/09 03:20:48;;;;;;;16.08;9.25;;;;;;;;;;4928378;29;20032;-80
2024/02/09 03:23:17;;;;;;;19.45;10.32;;;;;;;;;;4928595;29;20512;-80
2024/02/09 03:25:44;;;;;;;22.20;9.88;;;;;;;;;;4941938;29;20047;-79
2024/02/09 03:28:10;;;;;;;17.10;9.77;;;;;;;;;;4926733;29;20039;-79
2024/02/09 03:30:39;;;;;;;18.40;10.10;;;;;;;;;;4927040;29;20044;-80
2024/02/09 03:33:05;;;;;;;17.60;10.07;;;;;;;;;;4958842;28;20048;-79
2024/02/09 03:35:33;;;;;;;19.15;10.15;;;;;;;;;;4941972;29;20467;-79
2024/02/09 03:37:59;;;;;;;16.77;9.43;;;;;;;;;;4942202;29;20088;-79
2024/02/09 03:40:25;;;;;;;18.27;10.48;;;;;;;;;;4927372;29;20070;-79
2024/02/09 03:42:51;;;;;;;17.80;10.13;;;;;;;;;;4942483;29;20043;-79
2024/02/09 03:45:17;;;;;;;18.55;10.10;;;;;;;;;;4941564;29;20035;-79
2024/02/09 03:47:44;;;;;;;18.85;9.55;;;;;;;;;;4958829;29;20067;-81
2024/02/09 03:50:11;;;;;;;17.13;9.25;;;;;;;;;;4942055;29;20043;-78
2024/02/09 03:52:44;;;;;;;18.75;10.45;;;;;;;;;;4943055;29;20440;-80
2024/02/09 03:55:16;;;;;;;19.65;10.60;;;;;;;;;;4941942;29;20036;-79
2024/02/09 03:57:44;;;;;;;24.45;13.10;;;;;;;;;;4927370;29;20032;-78
2024/02/09 04:00:15;;;;;;;25.73;14.05;;;;;;;;;;4942010;29;20043;-81
2024/02/09 04:02:45;;;;;;;20.30;10.80;;;;;;;;;;4926454;29;20042;-80
2024/02/09 04:05:11;;;;;;;18.90;10.32;;;;;;;;;;4942192;29;20484;-79
2024/02/09 04:07:38;;;;;;;21.67;11.00;;;;;;;;;;4926969;29;20039;-80
2024/02/09 04:10:04;;;;;;;18.48;10.30;;;;;;;;;;4942159;29;20047;-79
2024/02/09 04:12:30;;;;;;;20.45;10.65;;;;;;;;;;4909794;29;20051;-79
2024/02/09 04:14:57;;;;;;;19.17;9.93;;;;;;;;;;4926414;29;20119;-79
2024/02/09 04:17:28;;;;;;;19.38;10.40;;;;;;;;;;4926582;29;20080;-79
2024/02/09 04:19:54;;;;;;;22.88;11.48;;;;;;;;;;4928349;29;20040;-80
2024/02/09 04:22:23;;;;;;;18.63;9.88;;;;;;;;;;4942147;29;20043;-79
2024/02/09 04:24:50;;;;;;;19.02;10.35;;;;;;;;;;4927321;29;20112;-79
2024/02/09 04:27:17;;;;;;;20.55;10.90;;;;;;;;;;4924197;29;20068;-80
2024/02/09 04:29:43;;;;;;;22.55;11.65;;;;;;;;;;4928243;29;20040;-78
2024/02/09 04:32:13;;;;;;;20.52;11.50;;;;;;;;;;4921096;29;20029;-79
2024/02/09 04:34:38;;;;;;;21.40;11.38;;;;;;;;;;4921435;29;20036;-78
2024/02/09 04:37:04;;;;;;;22.83;10.68;;;;;;;;;;4904513;29;20069;-79
2024/02/09 04:39:30;;;;;;;21.38;10.95;;;;;;;;;;4919549;29;20029;-78
2024/02/09 04:41:55;;;;;;;19.02;10.23;;;;;;;;;;4935347;29;20064;-80
2024/02/09 04:44:23;;;;;;;18.33;10.52;;;;;;;;;;4919451;29;20040;-79
2024/02/09 04:46:51;;;;;;;18.80;10.35;;;;;;;;;;4904745;29;20047;-78
2024/02/09 04:49:20;;;;;;;19.42;10.82;;;;;;;;;;4920063;29;20032;-78
2024/02/09 04:51:46;;;;;;;;;;;;;;;;;;4908362;29;20041;-79
2024/02/09 04:54:13;;;;;;;19.58;10.05;;;;;;;;;;4922508;29;19967;-79
2024/02/09 04:56:39;;;;;;;24.30;11.50;;;;;;;;;;4907896;29;20544;-79
2024/02/09 04:59:07;;;;;;;23.65;12.02;;;;;;;;;;4889365;29;20024;-78
2024/02/09 05:01:37;;;;;;;21.33;10.45;;;;;;;;;;4920518;29;20028;-79
2024/02/09 05:04:06;;;;;;;18.98;9.77;;;;;;;;;;4892254;29;20032;-77
2024/02/09 05:06:31;;;;;;;21.20;10.00;;;;;;;;;;4892094;29;20047;-79
2024/02/09 05:08:57;;;;;;;22.63;10.32;;;;;;;;;;4905655;29;20036;-80
2024/02/09 05:11:28;;;;;;;21.58;10.07;;;;;;;;;;4907059;29;20131;-80
2024/02/09 05:13:54;;;;;;;22.77;11.18;;;;;;;;;;4922748;29;20044;-79
2024/02/09 05:16:20;;;;;;;23.70;10.23;;;;;;;;;;4921666;29;20036;-80
2024/02/09 05:18:48;;;;;;;18.50;9.52;;;;;;;;;;4907831;29;20515;-79
2024/02/09 05:21:14;;;;;;;23.80;8.52;;;;;;;;;;4892495;29;20049;-80
2024/02/09 05:23:41;;;;;;;18.92;7.82;;;;;;;;;;4908536;29;20055;-78
2024/02/09 05:26:09;;;;;;;15.20;6.03;;;;;;;;;;4905118;29;20052;-79
2024/02/09 05:28:38;;;;;;;18.63;6.82;;;;;;;;;;4928419;29;20051;-79
2024/02/09 05:31:04;;;;;;;20.98;5.53;;;;;;;;;;4912003;29;20037;-79
2024/02/09 05:33:34;;;;;;;24.30;5.93;;;;;;;;;;4909099;29;20080;-79
2024/02/09 05:36:01;;;;;;;16.10;3.88;;;;;;;;;;4908922;29;20489;-79
2024/02/09 05:38:27;;;;;;;15.48;4.25;;;;;;;;;;4910002;29;20051;-79
2024/02/09 05:40:54;;;;;;;22.48;4.28;;;;;;;;;;4891907;29;20032;-79
2024/02/09 05:43:19;;;;;;;16.63;4.22;;;;;;;;;;4893250;29;20057;-83
2024/02/09 05:45:48;;;;;;;15.63;3.30;;;;;;;;;;4873884;29;20104;-79
2024/02/09 05:48:17;;;;;;;26.17;4.97;;;;;;;;;;4905088;29;20052;-79
2024/02/09 05:50:42;;;;;;;23.27;3.83;;;;;;;;;;4907993;29;20044;-78
2024/02/09 05:53:08;;;;;;;17.20;5.22;;;;;;;;;;4893172;29;20036;-79
2024/02/09 05:55:40;;;;;;;22.23;4.03;;;;;;;;;;4906601;29;20097;-80
2024/02/09 05:58:06;;;;;;;13.55;3.55;;;;;;;;;;4893307;29;20056;-79
2024/02/09 06:00:32;;;;;;;18.75;3.95;;;;;;;;;;4910246;29;20036;-78
2024/02/09 06:02:58;;;;;;;22.17;4.03;;;;;;;;;;4894226;29;20064;-79
2024/02/09 06:05:23;;;;;;;15.70;3.45;;;;;;;;;;4921788;29;20043;-79
2024/02/09 06:07:49;;;;;;;19.48;4.03;;;;;;;;;;4893314;29;20129;-79
2024/02/09 06:10:15;;;;;;;14.93;3.80;;;;;;;;;;4923564;29;20041;-79
2024/02/09 06:12:45;;;;;;;16.45;3.38;;;;;;;;;;4922713;29;20052;-79
2024/02/09 06:15:11;;;;;;;16.98;3.67;;;;;;;;;;4904294;29;20131;-79
2024/02/09 06:17:38;;;;;;;17.85;4.00;;;;;;;;;;4900969;29;20064;-79
2024/02/09 06:20:04;;;;;;;12.93;4.28;;;;;;;;;;4888432;29;20060;-78
2024/02/09 06:22:31;;;;;;;21.58;4.13;;;;;;;;;;4907039;29;20043;-79
2024/02/09 06:24:57;;;;;;;25.48;4.30;;;;;;;;;;4889978;29;20041;-78
2024/02/09 06:27:24;;;;;;;18.23;3.63;;;;;;;;;;4908583;29;20068;-78
2024/02/09 06:29:52;;;;;;;15.98;4.15;;;;;;;;;;4893817;29;20108;-79
2024/02/09 06:32:19;;;;;;;12.18;3.55;;;;;;;;;;4916912;29;20044;-80
2024/02/09 06:34:44;;;;;;;17.63;4.20;;;;;;;;;;4912853;29;20069;-79
2024/02/09 06:37:10;;;;;;;13.77;3.95;;;;;;;;;;4949835;29;20024;-80
2024/02/09 06:39:36;;;;;;;13.07;3.65;;;;;;;;;;4934641;29;20062;-78
2024/02/09 06:42:02;;;;;;;14.75;2.72;;;;;;;;;;4949771;29;20040;-79
2024/02/09 06:44:28;;;;;;;16.13;3.35;;;;;;;;;;4930537;29;20047;-80
2024/02/09 06:46:54;;;;;;;13.93;3.22;;;;;;;;;;4923661;29;20052;-79
2024/02/09 06:49:24;;;;;;;12.75;3.28;;;;;;;;;;4923887;29;20039;-79
2024/02/09 06:51:51;;;;;;;16.25;4.40;;;;;;;;;;4925391;29;20070;-81
2024/02/09 06:54:17;;;;;;;13.15;3.55;;;;;;;;;;4957586;29;20048;-79
2024/02/09 06:56:43;;;;;;;12.73;2.92;;;;;;;;;;4911484;29;20095;-79
2024/02/09 06:59:10;;;;;;;16.50;4.00;;;;;;;;;;4923401;29;20039;-78
2024/02/09 07:01:38;;;;;;;12.20;3.55;;;;;;;;;;4923337;29;20483;-78
2024/02/09 07:04:06;;;;;;;13.48;3.97;;;;;;;;;;4907830;29;20039;-79
2024/02/09 07:06:31;;;;;;;13.57;5.00;;;;;;;;;;4923447;29;20028;-79
2024/02/09 07:08:58;;;;;;;11.88;3.13;;;;;;;;;;4927351;29;20107;-78
2024/02/09 07:11:24;;;;;;;13.52;2.92;;;;;;;;;;4925491;29;20044;-79
2024/02/09 07:13:50;;;;;;;10.60;2.92;;;;;;;;;;4924810;29;20095;-80
2024/02/09 07:16:15;;;;;;;16.92;3.22;;;;;;;;;;4923213;29;20032;-78
2024/02/09 07:18:42;;;;;;;10.18;2.17;;;;;;;;;;4939068;29;20508;-79
2024/02/09 07:21:09;;;;;;;13.63;2.50;;;;;;;;;;4938704;29;20035;-79
2024/02/09 07:23:36;;;;;;;10.82;3.00;;;;;;;;;;4937520;29;20127;-78
2024/02/09 07:26:03;;;;;;;11.95;3.33;;;;;;;;;;4921908;29;20043;-79
2024/02/09 07:28:28;;;;;;;9.50;2.58;;;;;;;;;;4938230;29;20043;-79
2024/02/09 07:30:55;;;;;;;11.07;2.25;;;;;;;;;;4921051;29;20044;-79
2024/02/09 07:33:21;;;;;;;11.68;2.80;;;;;;;;;;4906354;29;20040;-79
2024/02/09 07:35:47;;;;;;;6.60;2.17;;;;;;;;;;4886591;29;20037;-80
2024/02/09 07:38:13;;;;;;;11.50;2.30;;;;;;;;;;4902463;29;20055;-78
2024/02/09 07:40:38;;;;;;;9.70;2.38;;;;;;;;;;4887475;29;20047;-79
2024/02/09 07:43:05;;;;;;;13.73;2.53;;;;;;;;;;4902741;29;20031;-80
2024/02/09 07:45:31;;;;;;;8.25;2.60;;;;;;;;;;4901861;29;20057;-79
2024/02/09 07:48:01;;;;;;;13.57;2.30;;;;;;;;;;4903999;29;20040;-79
2024/02/09 07:50:27;;;;;;;7.45;1.92;;;;;;;;;;4905389;29;20048;-79
2024/02/09 07:52:53;;;;;;;10.80;1.80;;;;;;;;;;4918517;29;20123;-79
2024/02/09 07:55:21;;;;;;;9.55;2.22;;;;;;;;;;4886705;29;20040;-79
2024/02/09 07:57:50;;;;;;;8.35;1.63;;;;;;;;;;4887139;29;20060;-79
2024/02/09 08:00:18;;;;;;;;;;;;;;;;;;4888429;29;20060;-78
2024/02/09 08:02:46;;;;;;;12.65;1.67;;;;;;;;;;4903000;29;20279;-79
2024/02/09 08:05:17;;;;;;;8.48;2.08;;;;;;;;;;4904747;29;20041;-80
2024/02/09 08:07:49;;;;;;;13.98;2.38;;;;;;;;;;4906036;29;20032;-78
2024/02/09 08:10:16;;;;;;;5.00;1.40;;;;;;;;;;4890572;29;20044;-79
2024/02/09 08:12:42;;;;;;;9.93;2.47;;;;;;;;;;4888114;29;20293;-78
2024/02/09 08:28:55;;;;;;;6.50;1.30;;;;;;;;;;5390221;23;20071;-80
2024/02/09 08:31:27;;;;;;;4.10;1.30;;;;;;;;;;4932404;29;20066;-80
2024/02/09 08:33:52;;;;;;;3.97;1.33;;;;;;;;;;4925650;29;20483;-79
2024/02/09 08:36:22;;;;;;;4.93;1.73;;;;;;;;;;4940177;29;20028;-79
2024/02/09 08:38:48;;;;;;;7.55;1.50;;;;;;;;;;4940381;29;20036;-79
2024/02/09 08:41:14;;;;;;;5.47;1.52;;;;;;;;;;4925256;29;20288;-80
2024/02/09 08:43:41;;;;;;;2.17;1.13;;;;;;;;;;4940143;29;20031;-80
2024/02/09 08:46:08;;;;;;;4.53;1.95;;;;;;;;;;4939958;29;20031;-79
2024/02/09 08:48:34;;;;;;;6.78;2.97;;;;;;;;;;4940552;29;20031;-80
2024/02/09 08:50:59;;;;;;;9.15;3.53;;;;;;;;;;4928600;29;20094;-79
2024/02/09 08:53:25;;;;;;;9.52;5.28;;;;;;;;;;4929722;29;20039;-79
2024/02/09 08:55:50;;;;;;;7.10;4.07;;;;;;;;;;4928257;29;20032;-78
2024/02/09 08:58:19;;;;;;;4.93;2.63;;;;;;;;;;4928387;29;20040;-80
2024/02/09 09:00:45;;;;;;;6.97;2.88;;;;;;;;;;4929700;29;20132;-79
2024/02/09 09:03:11;;;;;;;2.88;1.38;;;;;;;;;;4928165;29;20174;-78
2024/02/09 09:05:37;;;;;;;4.75;1.67;;;;;;;;;;4945754;29;20028;-79
2024/02/09 09:08:03;;;;;;;5.32;1.60;;;;;;;;;;4930573;29;20047;-79
2024/02/09 09:10:28;;;;;;;6.53;1.58;;;;;;;;;;4929539;29;20039;-80
2024/02/09 09:12:54;;;;;;;4.47;1.17;;;;;;;;;;4929842;29;20035;-79
2024/02/09 09:15:20;;;;;;;9.80;1.42;;;;;;;;;;4913838;29;20407;-79
2024/02/09 09:17:48;;;;;;;4.63;1.55;;;;;;;;;;4927449;29;20032;-79
2024/02/09 09:20:14;;;;;;;2.97;1.25;;;;;;;;;;4917993;29;20032;-79
2024/02/09 09:22:41;;;;;;;5.05;1.30;;;;;;;;;;4930544;29;20047;-79
2024/02/09 09:25:07;;;;;;;9.60;3.03;;;;;;;;;;4931483;29;20035;-79
2024/02/09 09:27:34;;;;;;;11.50;2.58;;;;;;;;;;4931447;29;20075;-84
2024/02/09 09:30:04;;;;;;;5.05;1.90;;;;;;;;;;4932448;29;20040;-79
2024/02/09 09:32:32;;;;;;;9.20;1.80;;;;;;;;;;4955548;29;20023;-79
2024/02/09 09:35:02;;;;;;;6.85;2.13;;;;;;;;;;4946572;29;20094;-80
2024/02/09 09:37:28;;;;;;;10.00;1.90;;;;;;;;;;4927353;29;20061;-79
2024/02/09 09:39:54;;;;;;;5.40;1.75;;;;;;;;;;4960381;29;20535;-79
2024/02/09 09:42:20;;;;;;;5.47;2.40;;;;;;;;;;4927331;29;20027;-80
2024/02/09 09:44:46;;;;;;;3.60;1.33;;;;;;;;;;4942904;29;20039;-78
2024/02/09 09:47:13;;;;;;;3.78;1.38;;;;;;;;;;4958808;28;20034;-79
2024/02/09 09:49:41;;;;;;;4.30;1.30;;;;;;;;;;4942285;29;20076;-79
2024/02/09 09:52:10;;;;;;;2.60;1.02;;;;;;;;;;4943358;29;20042;-78
2024/02/09 09:54:37;;;;;;;6.03;1.38;;;;;;;;;;4959064;29;20058;-80
2024/02/09 09:57:03;;;;;;;4.03;1.38;;;;;;;;;;4943079;29;20411;-79
2024/02/09 09:59:29;;;;;;;4.32;0.95;;;;;;;;;;4959314;28;20051;-79
2024/02/09 10:01:56;;;;;;;2.55;1.17;;;;;;;;;;4959246;29;20024;-79
2024/02/09 10:04:21;;;;;;;4.80;1.30;;;;;;;;;;4942797;29;20103;-79
2024/02/09 10:06:47;;;;;;;4.43;1.42;;;;;;;;;;4926473;29;20042;-79
2024/02/09 10:09:13;;;;;;;5.53;1.25;;;;;;;;;;4943191;29;20643;-78
2024/02/09 10:11:40;;;;;;;4.75;1.00;;;;;;;;;;4929007;29;20031;-78
2024/02/09 10:14:12;;;;;;;5.95;2.08;;;;;;;;;;4930442;29;20039;-79
2024/02/09 10:16:40;;;;;;;2.75;1.17;;;;;;;;;;4945960;29;20035;-79
2024/02/09 10:19:06;;;;;;;6.50;1.15;;;;;;;;;;4945726;29;20031;-79
2024/02/09 10:21:34;;;;;;;6.97;1.58;;;;;;;;;;4945695;29;20104;-79
2024/02/09 10:24:00;;;;;;;8.18;1.55;;;;;;;;;;4961732;28;20019;-79
2024/02/09 10:26:28;;;;;;;11.68;1.92;;;;;;;;;;4931098;29;20067;-79
2024/02/09 10:28:54;;;;;;;5.88;2.58;;;;;;;;;;4948518;29;20118;-79
2024/02/09 10:31:28;;;;;;;8.82;1.35;;;;;;;;;;4934064;29;20031;-79
2024/02/09 10:33:56;;;;;;;8.35;1.42;;;;;;;;;;4912916;29;20051;-79
2024/02/09 10:36:25;;;;;;;7.93;2.20;;;;;;;;;;4928646;29;20036;-80
2024/02/09 10:38:51;;;;;;;4.45;1.60;;;;;;;;;;4911868;29;20059;-79
2024/02/09 10:41:18;;;;;;;6.50;1.63;;;;;;;;;;4911078;29;20074;-79
2024/02/09 10:43:51;;;;;;;3.92;1.30;;;;;;;;;;4928221;29;20103;-78
2024/02/09 10:46:17;;;;;;;5.95;1.58;;;;;;;;;;4927678;29;20047;-79
2024/02/09 10:48:46;;;;;;;2.83;1.45;;;;;;;;;;4940526;29;20047;-80
2024/02/09 10:51:18;;;;;;;9.15;1.20;;;;;;;;;;4924158;29;20407;-78
2024/02/09 10:53:49;;;;;;;6.53;1.90;;;;;;;;;;4924585;29;20031;-80
2024/02/09 10:56:16;;;;;;;4.50;1.48;;;;;;;;;;4909956;29;20063;-79
2024/02/09 10:58:42;;;;;;;5.88;2.08;;;;;;;;;;4940281;29;20083;-78
2024/02/09 11:01:08;;;;;;;8.93;1.63;;;;;;;;;;4941794;29;20040;-78
2024/02/09 11:03:45;;;;;;;11.10;1.35;;;;;;;;;;4943967;29;20039;-78
2024/02/09 11:06:11;;;;;;;7.82;1.60;;;;;;;;;;4944351;29;20091;-78
2024/02/09 11:08:56;;;;;;;7.82;1.17;;;;;;;;;;4947521;29;20046;-80
2024/02/09 11:11:34;;;;;;;5.65;1.60;;;;;;;;;;4914806;29;20039;-79
2024/02/09 11:14:07;;;;;;;4.20;1.35;;;;;;;;;;4939759;29;20063;-80
2024/02/09 11:16:43;;;;;;;5.38;1.30;;;;;;;;;;4930566;29;20122;-80
2024/02/09 11:19:13;;;;;;;6.57;1.30;;;;;;;;;;4946225;29;20043;-79
2024/02/09 11:21:45;;;;;;;7.95;1.90;;;;;;;;;;4933792;29;20168;-79
2024/02/09 11:24:13;;;;;;;7.18;2.10;;;;;;;;;;4946266;29;20051;-78
2024/02/09 11:26:39;;;;;;;4.15;1.23;;;;;;;;;;4941326;29;20114;-79
2024/02/09 11:29:05;;;;;;;6.45;1.50;;;;;;;;;;4926739;29;20051;-79
2024/02/09 11:31:32;;;;;;;6.05;1.55;;;;;;;;;;4928645;29;20042;-79
2024/02/09 11:34:01;;;;;;;2.15;0.98;;;;;;;;;;4977870;28;20038;-78
2024/02/09 11:36:28;;;;;;;3.95;1.45;;;;;;;;;;4945116;29;20031;-79
2024/02/09 11:38:57;;;;;;;2.67;0.80;;;;;;;;;;4946931;29;20141;-79
2024/02/09 11:41:28;;;;;;;2.85;0.88;;;;;;;;;;4931780;29;20102;-80
2024/02/09 11:43:53;;;;;;;4.85;1.05;;;;;;;;;;4947520;29;20067;-79
2024/02/09 11:46:20;;;;;;;3.80;0.98;;;;;;;;;;4952557;29;20063;-81
2024/02/09 11:48:46;;;;;;;3.25;1.30;;;;;;;;;;4950341;29;20049;-79
2024/02/09 11:51:18;;;;;;;2.90;1.02;;;;;;;;;;4950243;29;20031;-80
2024/02/09 11:53:44;;;;;;;2.20;1.15;;;;;;;;;;4948486;29;20038;-79
2024/02/09 11:56:09;;;;;;;4.82;1.67;;;;;;;;;;4943740;29;20031;-81
2024/02/09 11:58:36;;;;;;;3.55;1.48;;;;;;;;;;4928518;29;20039;-80
2024/02/09 12:01:02;;;;;;;3.15;1.10;;;;;;;;;;4928844;29;20094;-80
2024/02/09 12:03:28;;;;;;;9.88;1.95;;;;;;;;;;4945227;28;20118;-79
2024/02/09 12:05:54;;;;;;;5.40;1.50;;;;;;;;;;4942870;29;20431;-79
2024/02/09 12:08:19;;;;;;;5.30;1.05;;;;;;;;;;4943814;29;20035;-78
2024/02/09 12:10:45;;;;;;;2.88;1.20;;;;;;;;;;4976642;28;20402;-80
2024/02/09 12:13:11;;;;;;;5.60;1.58;;;;;;;;;;4976678;28;20102;-79
2024/02/09 12:15:36;;;;;;;5.35;1.90;;;;;;;;;;4964852;28;20066;-79
2024/02/09 12:18:02;;;;;;;4.47;1.48;;;;;;;;;;4931467;29;20074;-79
2024/02/09 12:20:28;;;;;;;3.15;1.40;;;;;;;;;;4961306;29;20035;-81
2024/02/09 12:22:55;;;;;;;3.88;1.55;;;;;;;;;;4962466;28;20107;-80
2024/02/09 12:25:22;;;;;;;4.47;1.73;;;;;;;;;;4949762;29;20042;-78
2024/02/09 12:27:47;;;;;;;4.78;2.00;;;;;;;;;;4965437;29;20050;-78
2024/02/09 12:30:15;;;;;;;3.92;1.77;;;;;;;;;;4949768;29;20038;-79
2024/02/09 12:32:40;;;;;;;6.70;1.70;;;;;;;;;;4949245;29;20039;-80
2024/02/09 12:35:07;;;;;;;4.10;1.38;;;;;;;;;;4967833;28;20035;-79
2024/02/09 12:37:35;;;;;;;;;;;;;;;;;;4967528;29;20027;-79
2024/02/09 12:40:04;;;;;;;8.98;1.80;;;;;;;;;;4966259;28;20247;-81
2024/02/09 12:42:33;;;;;;;6.70;2.30;;;;;;;;;;4953398;29;20038;-79
2024/02/09 12:44:59;;;;;;;4.05;1.40;;;;;;;;;;4953487;29;20067;-78
2024/02/09 12:47:26;;;;;;;3.90;1.45;;;;;;;;;;4954376;29;20049;-81
2024/02/09 12:49:52;;;;;;;7.22;2.05;;;;;;;;;;4952248;29;20035;-82
2024/02/09 12:52:19;;;;;;;6.20;2.15;;;;;;;;;;4950174;29;20043;-81
2024/02/09 12:54:48;;;;;;;7.97;2.58;;;;;;;;;;4937854;29;20046;-80
2024/02/09 12:57:19;;;;;;;4.88;1.73;;;;;;;;;;4969331;28;20028;-81
2024/02/09 12:59:46;;;;;;;5.82;1.80;;;;;;;;;;4955695;29;20031;-80
2024/02/09 13:02:11;;;;;;;5.72;2.13;;;;;;;;;;4973412;28;20066;-81
2024/02/09 13:04:37;;;;;;;4.72;1.70;;;;;;;;;;4985901;28;20114;-80
2024/02/09 13:07:06;;;;;;;7.95;3.25;;;;;;;;;;4986490;28;20046;-80
2024/02/09 13:09:34;;;;;;;6.32;2.53;;;;;;;;;;4970915;28;20038;-81
2024/02/09 13:12:01;;;;;;;9.20;3.20;;;;;;;;;;4986389;28;20035;-78
2024/02/09 13:14:26;;;;;;;7.43;3.13;;;;;;;;;;4986374;28;20534;-80
2024/02/09 13:16:52;;;;;;;5.10;2.13;;;;;;;;;;4971573;28;20035;-81
2024/02/09 13:19:18;;;;;;;10.55;2.20;;;;;;;;;;4972310;28;20031;-80
2024/02/09 13:21:45;;;;;;;7.47;2.50;;;;;;;;;;4970870;28;20031;-80
2024/02/09 13:24:12;;;;;;;9.80;1.80;;;;;;;;;;4925216;29;20023;-79
2024/02/09 13:26:39;;;;;;;5.40;1.70;;;;;;;;;;4960249;29;20047;-78
2024/02/09 13:29:07;;;;;;;11.65;2.33;;;;;;;;;;4976709;29;20054;-78
2024/02/09 13:31:34;;;;;;;7.93;1.83;;;;;;;;;;4982948;28;20065;-78
2024/02/09 13:33:59;;;;;;;6.93;2.33;;;;;;;;;;4912209;29;20510;-78
2024/02/09 13:36:25;;;;;;;6.85;2.10;;;;;;;;;;4911169;29;20087;-80
2024/02/09 13:38:51;;;;;;;4.03;1.73;;;;;;;;;;4924686;29;20583;-78
2024/02/09 13:41:17;;;;;;;7.95;2.40;;;;;;;;;;4940572;29;20024;-78
2024/02/09 13:43:43;;;;;;;4.70;2.08;;;;;;;;;;4905171;29;20376;-78
2024/02/09 13:46:09;;;;;;;9.52;2.00;;;;;;;;;;4921479;29;20046;-80
2024/02/09 13:48:34;;;;;;;9.30;2.80;;;;;;;;;;4907593;29;20039;-79
2024/02/09 13:51:01;;;;;;;9.55;4.38;;;;;;;;;;4923699;29;20039;-80
2024/02/09 13:53:27;;;;;;;4.18;1.83;;;;;;;;;;4921002;29;20043;-79
2024/02/09 13:55:55;;;;;;;5.15;2.50;;;;;;;;;;4939810;29;20036;-79
2024/02/09 13:58:21;;;;;;;7.50;2.53;;;;;;;;;;4940519;29;20024;-81
2024/02/09 14:00:50;;;;;;;;;;;;;;;;;;4921565;29;20032;-79
2024/02/09 14:03:19;;;;;;;7.90;2.17;;;;;;;;;;4938395;29;20013;-80
2024/02/09 14:06:08;;;;;;;5.30;2.60;;;;;;;;;;4937548;29;20043;-81
2024/02/09 14:08:33;;;;;;;7.78;2.65;;;;;;;;;;4922190;29;20071;-81
2024/02/09 14:10:59;;;;;;;8.07;2.80;;;;;;;;;;4907388;29;20498;-80
2024/02/09 14:13:24;;;;;;;12.10;4.15;;;;;;;;;;4923788;29;20098;-79
2024/02/09 14:15:50;;;;;;;8.73;2.75;;;;;;;;;;4922190;29;20502;-79
2024/02/09 14:18:17;;;;;;;9.68;2.50;;;;;;;;;;4924332;29;20106;-79
2024/02/09 14:20:46;;;;;;;7.93;2.92;;;;;;;;;;4907440;29;20091;-81
2024/02/09 14:23:12;;;;;;;6.88;2.28;;;;;;;;;;4910277;29;20043;-80
2024/02/09 14:25:38;;;;;;;7.57;2.30;;;;;;;;;;4909853;29;20039;-79
2024/02/09 14:28:08;;;;;;;6.63;2.72;;;;;;;;;;4910539;29;20039;-80
2024/02/09 14:30:35;;;;;;;6.78;2.40;;;;;;;;;;4910446;29;20053;-79
2024/02/09 14:33:01;;;;;;;9.95;2.88;;;;;;;;;;4925093;29;20051;-80
2024/02/09 14:35:29;;;;;;;6.88;1.90;;;;;;;;;;4944954;29;20521;-79
2024/02/09 14:37:55;;;;;;;7.20;2.80;;;;;;;;;;4944186;29;20176;-81
2024/02/09 14:40:22;;;;;;;12.52;2.17;;;;;;;;;;4929345;29;20122;-79
2024/02/09 14:42:51;;;;;;;3.97;1.83;;;;;;;;;;4945462;28;20047;-79
2024/02/09 14:45:17;;;;;;;9.73;1.90;;;;;;;;;;4944177;29;20039;-80
2024/02/09 14:47:43;;;;;;;15.20;2.63;;;;;;;;;;4943189;29;20037;-79
2024/02/09 14:50:08;;;;;;;5.85;1.63;;;;;;;;;;4942679;29;20063;-81
2024/02/09 14:52:35;;;;;;;5.25;1.95;;;;;;;;;;4941127;29;20038;-79
2024/02/09 14:55:01;;;;;;;6.57;1.70;;;;;;;;;;4956637;28;20034;-78
2024/02/09 14:57:27;;;;;;;5.72;1.80;;;;;;;;;;4945161;29;20027;-79
2024/02/09 14:59:53;;;;;;;9.63;1.65;;;;;;;;;;4946449;29;20379;-79
2024/02/09 15:02:19;;;;;;;8.70;2.20;;;;;;;;;;4966192;28;20031;-79
2024/02/09 15:04:44;;;;;;;9.05;2.20;;;;;;;;;;4931104;29;20067;-79
2024/02/09 15:07:10;;;;;;;8.68;2.08;;;;;;;;;;4944888;29;20039;-80
2024/02/09 15:09:36;;;;;;;6.93;1.92;;;;;;;;;;4945924;29;20062;-79
2024/02/09 15:12:02;;;;;;;7.53;1.95;;;;;;;;;;4946383;29;20035;-81
2024/02/09 15:14:31;;;;;;;8.55;2.17;;;;;;;;;;4929370;29;20082;-80
2024/02/09 15:16:57;;;;;;;6.60;2.00;;;;;;;;;;4943769;29;20611;-78
2024/02/09 15:19:23;;;;;;;5.65;2.10;;;;;;;;;;4942848;29;20035;-79
2024/02/09 15:21:50;;;;;;;8.35;2.15;;;;;;;;;;4942697;29;20090;-79
2024/02/09 15:24:19;;;;;;;6.03;2.05;;;;;;;;;;4941265;29;20130;-78
2024/02/09 15:26:45;;;;;;;6.65;1.60;;;;;;;;;;4941827;29;20043;-78
2024/02/09 15:29:11;;;;;;;5.43;1.73;;;;;;;;;;4926515;29;20498;-79
2024/02/09 15:31:48;;;;;;;11.20;1.75;;;;;;;;;;4943012;29;20067;-78
2024/02/09 15:34:14;;;;;;;4.75;1.80;;;;;;;;;;4972978;28;20518;-78
2024/02/09 15:36:42;;;;;;;11.52;3.08;;;;;;;;;;4973468;28;20027;-78
2024/02/09 15:39:08;;;;;;;8.07;2.20;;;;;;;;;;4957753;28;20066;-78
2024/02/09 15:41:33;;;;;;;10.68;2.00;;;;;;;;;;4942062;29;20035;-78
2024/02/09 15:43:59;;;;;;;7.80;2.20;;;;;;;;;;4959375;28;20031;-78
2024/02/09 15:46:25;;;;;;;8.48;2.80;;;;;;;;;;4957718;28;20087;-78
2024/02/09 15:48:52;;;;;;;7.93;2.10;;;;;;;;;;4958707;28;20035;-78
2024/02/09 15:51:28;;;;;;;6.38;1.92;;;;;;;;;;4941485;29;20046;-77
2024/02/09 15:53:54;;;;;;;6.63;2.05;;;;;;;;;;4973375;28;20051;-79
2024/02/09 15:56:24;;;;;;;9.90;2.30;;;;;;;;;;4958758;28;20039;-78
2024/02/09 15:58:51;;;;;;;6.80;2.00;;;;;;;;;;4958099;28;20036;-78
2024/02/09 16:01:18;;;;;;;11.70;2.88;;;;;;;;;;4956962;29;20038;-79
2024/02/09 16:03:45;;;;;;;5.82;2.20;;;;;;;;;;4925908;29;20043;-78
2024/02/09 16:06:11;;;;;;;8.65;2.15;;;;;;;;;;4943385;29;20427;-78
2024/02/09 16:08:38;;;;;;;5.05;2.25;;;;;;;;;;4977355;28;20101;-79
2024/02/09 16:11:03;;;;;;;6.13;2.47;;;;;;;;;;4945020;29;20115;-78
2024/02/09 16:13:33;;;;;;;5.70;2.55;;;;;;;;;;4961143;28;20039;-78
2024/02/09 16:15:59;;;;;;;7.88;2.55;;;;;;;;;;4944836;29;20035;-78
2024/02/09 16:18:26;;;;;;;12.55;2.38;;;;;;;;;;4962478;28;20028;-78
2024/02/09 16:20:53;;;;;;;8.02;2.33;;;;;;;;;;4960120;28;20034;-78
2024/02/09 16:23:18;;;;;;;4.15;1.92;;;;;;;;;;4944831;28;20032;-78
2024/02/09 16:25:46;;;;;;;9.43;2.30;;;;;;;;;;4943652;29;20412;-78
2024/02/09 16:28:12;;;;;;;7.22;2.30;;;;;;;;;;4942411;29;20042;-78
2024/02/09 16:30:38;;;;;;;5.68;2.40;;;;;;;;;;4943334;29;20419;-78
2024/02/09 16:33:04;;;;;;;6.53;2.03;;;;;;;;;;4932019;29;20102;-78
2024/02/09 16:35:29;;;;;;;7.63;2.35;;;;;;;;;;4925480;29;20468;-78
2024/02/09 16:37:55;;;;;;;9.05;2.38;;;;;;;;;;4912341;29;20131;-78
2024/02/09 16:40:24;;;;;;;7.15;2.35;;;;;;;;;;4942936;29;20038;-78
2024/02/09 16:42:49;;;;;;;13.40;2.28;;;;;;;;;;4943230;29;20032;-78